Skip Navigation LinksHome page > Weather > Current weather Skip Navigation Links

Current Weather

Eureka, Nunavut

For information only: do not use for flight planning or navigation.
Latest weather
Observation time Wednesday, December 17, 2014 6:00 PM CST
Local time Wednesday, December 17, 2014 7:00 PM CST
Flight conditions Visual Meteorological Conditions
Winds
Wind direction East (100°)
Wind speed 3 mph
Visibility 15 mi.
Sky condition
Ceiling unlimited
Sky clear
Temperature -29°F
Dewpoint -38°F
Altimeter 30.03 in.Hg
Derived measurements
Relative humidity 60%
Wind chill -41°F
Density altitude -6585 ft.
Sea-level pressure 30.04 in.Hg
METAR CWEU 180000Z 10003KT 15SM SKC M34/M39 A3003 RMK SLP171

Settings

Location code

InnerDrive.Weather 4.0.5399.0 Release CLR 4.0.30319.34014
Copyright ©2014 Inner Drive Technology. All rights reserved. Portions Copyright ©1986-2014 David Braverman.

Find weather

Site navigation


Skip Navigation Links

Place info

Page info

PayPal - The safer, easier way to pay online!

Return home.

Copyright ©2014 Inner Drive Technology. Purveyors of fine, hand-crafted computer software. Page printed 2014-12-18T01:00:14 UTC.